<?xml version="1.0" encoding="UTF-8" standalone="no" ?>
<gpx xmlns="http://www.topografix.com/GPX/1/1" xmlns:xsi="http://www.w3.org/2001/XMLSchema-instance" xsi:schemaLocation="http://www.topografix.com/GPX/1/1 http://www.topografix.com/GPX/1/1/gpx.xsd" version="1.1" creator="VisuGPX - https://www.visugpx.com">
  <metadata>
    <name>3 jours en Beaufortain 2018</name>
    <desc><![CDATA[3 jours en Beaufortain 2018 depuis le refuge de La Balme]]></desc>
  </metadata>
  <trk>
    <name><![CDATA[BALME LES PARS]]></name>
    <trkseg>
      <trkpt lat="45.63209" lon="6.66913">
        <ele>2019.39</ele>
        <time>2018-02-08T14:23:14Z</time>
      </trkpt>
      <trkpt lat="45.63209" lon="6.66913">
        <ele>2019.39</ele>
        <time>2018-02-08T14:23:15Z</time>
      </trkpt>
      <trkpt lat="45.63209" lon="6.66913">
        <ele>2017.46</ele>
        <time>2018-02-08T14:23:22Z</time>
      </trkpt>
      <trkpt lat="45.63208" lon="6.66914">
        <ele>2016.98</ele>
        <time>2018-02-08T14:23:55Z</time>
      </trkpt>
      <trkpt lat="45.63208" lon="6.66913">
        <ele>2016.98</ele>
        <time>2018-02-08T14:24:04Z</time>
      </trkpt>
      <trkpt lat="45.63207" lon="6.66912">
        <ele>2016.98</ele>
        <time>2018-02-08T14:24:32Z</time>
      </trkpt>
      <trkpt lat="45.63206" lon="6.66913">
        <ele>2016.02</ele>
        <time>2018-02-08T14:24:45Z</time>
      </trkpt>
      <trkpt lat="45.63204" lon="6.66912">
        <ele>2016.02</ele>
        <time>2018-02-08T14:25:12Z</time>
      </trkpt>
      <trkpt lat="45.63202" lon="6.6691">
        <ele>2016.02</ele>
        <time>2018-02-08T14:25:56Z</time>
      </trkpt>
      <trkpt lat="45.63202" lon="6.66909">
        <ele>2016.02</ele>
        <time>2018-02-08T14:26:36Z</time>
      </trkpt>
      <trkpt lat="45.63199" lon="6.66911">
        <ele>2016.5</ele>
        <time>2018-02-08T14:27:16Z</time>
      </trkpt>
      <trkpt lat="45.632" lon="6.6691">
        <ele>2016.5</ele>
        <time>2018-02-08T14:27:34Z</time>
      </trkpt>
      <trkpt lat="45.63198" lon="6.66903">
        <ele>2016.5</ele>
        <time>2018-02-08T14:28:05Z</time>
      </trkpt>
      <trkpt lat="45.63197" lon="6.66909">
        <ele>2016.5</ele>
        <time>2018-02-08T14:28:31Z</time>
      </trkpt>
      <trkpt lat="45.63201" lon="6.6691">
        <ele>2016.5</ele>
        <time>2018-02-08T14:29:03Z</time>
      </trkpt>
      <trkpt lat="45.63206" lon="6.6691">
        <ele>2016.98</ele>
        <time>2018-02-08T14:29:29Z</time>
      </trkpt>
      <trkpt lat="45.63204" lon="6.66908">
        <ele>2016.98</ele>
        <time>2018-02-08T14:29:56Z</time>
      </trkpt>
      <trkpt lat="45.63205" lon="6.66912">
        <ele>2016.98</ele>
        <time>2018-02-08T14:30:24Z</time>
      </trkpt>
      <trkpt lat="45.63204" lon="6.6691">
        <ele>2016.98</ele>
        <time>2018-02-08T14:30:49Z</time>
      </trkpt>
      <trkpt lat="45.63207" lon="6.66914">
        <ele>2016.98</ele>
        <time>2018-02-08T14:31:17Z</time>
      </trkpt>
      <trkpt lat="45.6321" lon="6.66915">
        <ele>2016.98</ele>
        <time>2018-02-08T14:31:43Z</time>
      </trkpt>
      <trkpt lat="45.63203" lon="6.66914">
        <ele>2016.5</ele>
        <time>2018-02-08T14:32:17Z</time>
      </trkpt>
      <trkpt lat="45.632" lon="6.66913">
        <ele>2016.5</ele>
        <time>2018-02-08T14:32:32Z</time>
      </trkpt>
      <trkpt lat="45.63201" lon="6.66912">
        <ele>2016.5</ele>
        <time>2018-02-08T14:32:54Z</time>
      </trkpt>
      <trkpt lat="45.63206" lon="6.66911">
        <ele>2016.5</ele>
        <time>2018-02-08T14:33:22Z</time>
      </trkpt>
      <trkpt lat="45.63206" lon="6.66912">
        <ele>2016.5</ele>
        <time>2018-02-08T14:33:47Z</time>
      </trkpt>
      <trkpt lat="45.63204" lon="6.6691">
        <ele>2017.46</ele>
        <time>2018-02-08T14:34:18Z</time>
      </trkpt>
      <trkpt lat="45.63205" lon="6.66911">
        <ele>2017.46</ele>
        <time>2018-02-08T14:34:35Z</time>
      </trkpt>
      <trkpt lat="45.63206" lon="6.66912">
        <ele>2018.43</ele>
        <time>2018-02-08T14:34:54Z</time>
      </trkpt>
      <trkpt lat="45.63205" lon="6.66913">
        <ele>2017.46</ele>
        <time>2018-02-08T14:35:22Z</time>
      </trkpt>
      <trkpt lat="45.63206" lon="6.66913">
        <ele>2017.46</ele>
        <time>2018-02-08T14:35:36Z</time>
      </trkpt>
      <trkpt lat="45.63207" lon="6.66912">
        <ele>2017.94</ele>
        <time>2018-02-08T14:35:49Z</time>
      </trkpt>
      <trkpt lat="45.63203" lon="6.66914">
        <ele>2017.46</ele>
        <time>2018-02-08T14:36:08Z</time>
      </trkpt>
      <trkpt lat="45.63204" lon="6.66913">
        <ele>2017.46</ele>
        <time>2018-02-08T14:36:24Z</time>
      </trkpt>
      <trkpt lat="45.63207" lon="6.66916">
        <ele>2017.94</ele>
        <time>2018-02-08T14:36:44Z</time>
      </trkpt>
      <trkpt lat="45.63205" lon="6.66916">
        <ele>2017.94</ele>
        <time>2018-02-08T14:37:06Z</time>
      </trkpt>
      <trkpt lat="45.63204" lon="6.66917">
        <ele>2016.98</ele>
        <time>2018-02-08T14:37:32Z</time>
      </trkpt>
      <trkpt lat="45.63202" lon="6.66912">
        <ele>2017.46</ele>
        <time>2018-02-08T14:38:00Z</time>
      </trkpt>
      <trkpt lat="45.63206" lon="6.66913">
        <ele>2017.46</ele>
        <time>2018-02-08T14:38:20Z</time>
      </trkpt>
      <trkpt lat="45.63205" lon="6.66915">
        <ele>2017.94</ele>
        <time>2018-02-08T14:38:49Z</time>
      </trkpt>
      <trkpt lat="45.63205" lon="6.66914">
        <ele>2017.94</ele>
        <time>2018-02-08T14:39:15Z</time>
      </trkpt>
      <trkpt lat="45.63205" lon="6.66915">
        <ele>2017.46</ele>
        <time>2018-02-08T14:39:37Z</time>
      </trkpt>
      <trkpt lat="45.63205" lon="6.66915">
        <ele>2017.46</ele>
        <time>2018-02-08T14:40:03Z</time>
      </trkpt>
      <trkpt lat="45.63206" lon="6.66916">
        <ele>2017.46</ele>
        <time>2018-02-08T14:40:28Z</time>
      </trkpt>
      <trkpt lat="45.63207" lon="6.66919">
        <ele>2017.46</ele>
        <time>2018-02-08T14:40:31Z</time>
      </trkpt>
      <trkpt lat="45.63206" lon="6.66922">
        <ele>2016.98</ele>
        <time>2018-02-08T14:40:32Z</time>
      </trkpt>
      <trkpt lat="45.63204" lon="6.66928">
        <ele>2016.5</ele>
        <time>2018-02-08T14:40:34Z</time>
      </trkpt>
      <trkpt lat="45.63204" lon="6.66931">
        <ele>2015.54</ele>
        <time>2018-02-08T14:40:35Z</time>
      </trkpt>
      <trkpt lat="45.63207" lon="6.66933">
        <ele>2014.58</ele>
        <time>2018-02-08T14:40:36Z</time>
      </trkpt>
      <trkpt lat="45.6321" lon="6.66936">
        <ele>2014.58</ele>
        <time>2018-02-08T14:40:37Z</time>
      </trkpt>
      <trkpt lat="45.63213" lon="6.66938">
        <ele>2014.1</ele>
        <time>2018-02-08T14:40:38Z</time>
      </trkpt>
      <trkpt lat="45.63225" lon="6.66947">
        <ele>2011.22</ele>
        <time>2018-02-08T14:40:41Z</time>
      </trkpt>
      <trkpt lat="45.63229" lon="6.6695">
        <ele>2010.25</ele>
        <time>2018-02-08T14:40:42Z</time>
      </trkpt>
      <trkpt lat="45.63234" lon="6.66954">
        <ele>2009.77</ele>
        <time>2018-02-08T14:40:43Z</time>
      </trkpt>
      <trkpt lat="45.63239" lon="6.66958">
        <ele>2008.81</ele>
        <time>2018-02-08T14:40:44Z</time>
      </trkpt>
      <trkpt lat="45.63244" lon="6.66961">
        <ele>2007.85</ele>
        <time>2018-02-08T14:40:45Z</time>
      </trkpt>
      <trkpt lat="45.63249" lon="6.66964">
        <ele>2006.41</ele>
        <time>2018-02-08T14:40:46Z</time>
      </trkpt>
      <trkpt lat="45.63254" lon="6.66969">
        <ele>2004.97</ele>
        <time>2018-02-08T14:40:47Z</time>
      </trkpt>
      <trkpt lat="45.63259" lon="6.66974">
        <ele>2004.49</ele>
        <time>2018-02-08T14:40:48Z</time>
      </trkpt>
      <trkpt lat="45.63264" lon="6.66977">
        <ele>2003.04</ele>
        <time>2018-02-08T14:40:49Z</time>
      </trkpt>
      <trkpt lat="45.63268" lon="6.66979">
        <ele>2002.08</ele>
        <time>2018-02-08T14:40:50Z</time>
      </trkpt>
      <trkpt lat="45.63271" lon="6.6698">
        <ele>2002.08</ele>
        <time>2018-02-08T14:40:51Z</time>
      </trkpt>
      <trkpt lat="45.6328" lon="6.66989">
        <ele>2001.6</ele>
        <time>2018-02-08T14:40:55Z</time>
      </trkpt>
      <trkpt lat="45.63283" lon="6.66993">
        <ele>2001.12</ele>
        <time>2018-02-08T14:40:56Z</time>
      </trkpt>
      <trkpt lat="45.63287" lon="6.66996">
        <ele>2000.16</ele>
        <time>2018-02-08T14:40:57Z</time>
      </trkpt>
      <trkpt lat="45.63297" lon="6.67003">
        <ele>1998.24</ele>
        <time>2018-02-08T14:40:59Z</time>
      </trkpt>
      <trkpt lat="45.63305" lon="6.67011">
        <ele>1997.28</ele>
        <time>2018-02-08T14:41:01Z</time>
      </trkpt>
      <trkpt lat="45.63309" lon="6.67015">
        <ele>1996.8</ele>
        <time>2018-02-08T14:41:02Z</time>
      </trkpt>
      <trkpt lat="45.63313" lon="6.67017">
        <ele>1996.32</ele>
        <time>2018-02-08T14:41:03Z</time>
      </trkpt>
      <trkpt lat="45.63331" lon="6.6703">
        <ele>1994.87</ele>
        <time>2018-02-08T14:41:09Z</time>
      </trkpt>
      <trkpt lat="45.63336" lon="6.6703">
        <ele>1994.87</ele>
        <time>2018-02-08T14:41:13Z</time>
      </trkpt>
      <trkpt lat="45.63352" lon="6.67033">
        <ele>1990.55</ele>
        <time>2018-02-08T14:41:17Z</time>
      </trkpt>
      <trkpt lat="45.63354" lon="6.67033">
        <ele>1991.03</ele>
        <time>2018-02-08T14:41:18Z</time>
      </trkpt>
      <trkpt lat="45.63356" lon="6.67035">
        <ele>1991.03</ele>
        <time>2018-02-08T14:41:20Z</time>
      </trkpt>
      <trkpt lat="45.63365" lon="6.67053">
        <ele>1988.14</ele>
        <time>2018-02-08T14:41:27Z</time>
      </trkpt>
      <trkpt lat="45.63355" lon="6.67049">
        <ele>1985.74</ele>
        <time>2018-02-08T14:41:31Z</time>
      </trkpt>
      <trkpt lat="45.63353" lon="6.67047">
        <ele>1985.26</ele>
        <time>2018-02-08T14:41:32Z</time>
      </trkpt>
      <trkpt lat="45.63356" lon="6.67058">
        <ele>1982.86</ele>
        <time>2018-02-08T14:41:36Z</time>
      </trkpt>
      <trkpt lat="45.63358" lon="6.67062">
        <ele>1982.86</ele>
        <time>2018-02-08T14:41:37Z</time>
      </trkpt>
      <trkpt lat="45.63362" lon="6.67072">
        <ele>1980.93</ele>
        <time>2018-02-08T14:41:40Z</time>
      </trkpt>
      <trkpt lat="45.63361" lon="6.67076">
        <ele>1980.45</ele>
        <time>2018-02-08T14:41:41Z</time>
      </trkpt>
      <trkpt lat="45.63354" lon="6.67077">
        <ele>1978.05</ele>
        <time>2018-02-08T14:41:43Z</time>
      </trkpt>
      <trkpt lat="45.6335" lon="6.67074">
        <ele>1977.09</ele>
        <time>2018-02-08T14:41:44Z</time>
      </trkpt>
      <trkpt lat="45.63347" lon="6.67071">
        <ele>1976.61</ele>
        <time>2018-02-08T14:41:45Z</time>
      </trkpt>
      <trkpt lat="45.63344" lon="6.67069">
        <ele>1975.65</ele>
        <time>2018-02-08T14:41:46Z</time>
      </trkpt>
      <trkpt lat="45.63342" lon="6.67067">
        <ele>1976.13</ele>
        <time>2018-02-08T14:41:47Z</time>
      </trkpt>
      <trkpt lat="45.6334" lon="6.67067">
        <ele>1975.65</ele>
        <time>2018-02-08T14:41:48Z</time>
      </trkpt>
      <trkpt lat="45.6334" lon="6.6707">
        <ele>1975.65</ele>
        <time>2018-02-08T14:41:49Z</time>
      </trkpt>
      <trkpt lat="45.63341" lon="6.67075">
        <ele>1974.69</ele>
        <time>2018-02-08T14:41:50Z</time>
      </trkpt>
      <trkpt lat="45.63344" lon="6.67079">
        <ele>1973.72</ele>
        <time>2018-02-08T14:41:51Z</time>
      </trkpt>
      <trkpt lat="45.63354" lon="6.671">
        <ele>1970.84</ele>
        <time>2018-02-08T14:41:56Z</time>
      </trkpt>
      <trkpt lat="45.63352" lon="6.67105">
        <ele>1969.4</ele>
        <time>2018-02-08T14:41:57Z</time>
      </trkpt>
      <trkpt lat="45.63349" lon="6.67107">
        <ele>1968.92</ele>
        <time>2018-02-08T14:41:58Z</time>
      </trkpt>
      <trkpt lat="45.63344" lon="6.67106">
        <ele>1967.48</ele>
        <time>2018-02-08T14:41:59Z</time>
      </trkpt>
      <trkpt lat="45.63339" lon="6.67104">
        <ele>1966.51</ele>
        <time>2018-02-08T14:42:00Z</time>
      </trkpt>
      <trkpt lat="45.63335" lon="6.67102">
        <ele>1966.51</ele>
        <time>2018-02-08T14:42:01Z</time>
      </trkpt>
      <trkpt lat="45.63332" lon="6.67101">
        <ele>1966.03</ele>
        <time>2018-02-08T14:42:02Z</time>
      </trkpt>
      <trkpt lat="45.63328" lon="6.67117">
        <ele>1962.67</ele>
        <time>2018-02-08T14:42:07Z</time>
      </trkpt>
      <trkpt lat="45.63337" lon="6.67129">
        <ele>1958.82</ele>
        <time>2018-02-08T14:42:13Z</time>
      </trkpt>
      <trkpt lat="45.63333" lon="6.6713">
        <ele>1959.3</ele>
        <time>2018-02-08T14:42:14Z</time>
      </trkpt>
      <trkpt lat="45.63318" lon="6.67132">
        <ele>1956.42</ele>
        <time>2018-02-08T14:42:19Z</time>
      </trkpt>
      <trkpt lat="45.63324" lon="6.67144">
        <ele>1953.06</ele>
        <time>2018-02-08T14:42:23Z</time>
      </trkpt>
      <trkpt lat="45.63326" lon="6.67144">
        <ele>1952.09</ele>
        <time>2018-02-08T14:42:24Z</time>
      </trkpt>
      <trkpt lat="45.63351" lon="6.67159">
        <ele>1948.73</ele>
        <time>2018-02-08T14:42:33Z</time>
      </trkpt>
      <trkpt lat="45.63338" lon="6.67169">
        <ele>1945.36</ele>
        <time>2018-02-08T14:42:38Z</time>
      </trkpt>
      <trkpt lat="45.63335" lon="6.6717">
        <ele>1945.36</ele>
        <time>2018-02-08T14:42:39Z</time>
      </trkpt>
      <trkpt lat="45.6332" lon="6.67169">
        <ele>1942.96</ele>
        <time>2018-02-08T14:42:44Z</time>
      </trkpt>
      <trkpt lat="45.63323" lon="6.67179">
        <ele>1940.08</ele>
        <time>2018-02-08T14:42:49Z</time>
      </trkpt>
      <trkpt lat="45.63338" lon="6.67192">
        <ele>1938.16</ele>
        <time>2018-02-08T14:42:57Z</time>
      </trkpt>
      <trkpt lat="45.63332" lon="6.67192">
        <ele>1936.23</ele>
        <time>2018-02-08T14:43:00Z</time>
      </trkpt>
      <trkpt lat="45.6333" lon="6.67192">
        <ele>1936.23</ele>
        <time>2018-02-08T14:43:03Z</time>
      </trkpt>
      <trkpt lat="45.63339" lon="6.67205">
        <ele>1932.39</ele>
        <time>2018-02-08T14:43:10Z</time>
      </trkpt>
      <trkpt lat="45.6335" lon="6.67232">
        <ele>1929.98</ele>
        <time>2018-02-08T14:43:17Z</time>
      </trkpt>
      <trkpt lat="45.63356" lon="6.67256">
        <ele>1927.1</ele>
        <time>2018-02-08T14:43:23Z</time>
      </trkpt>
      <trkpt lat="45.63363" lon="6.67289">
        <ele>1922.77</ele>
        <time>2018-02-08T14:43:29Z</time>
      </trkpt>
      <trkpt lat="45.63363" lon="6.67315">
        <ele>1922.29</ele>
        <time>2018-02-08T14:43:37Z</time>
      </trkpt>
      <trkpt lat="45.63362" lon="6.67317">
        <ele>1922.29</ele>
        <time>2018-02-08T14:43:59Z</time>
      </trkpt>
      <trkpt lat="45.6336" lon="6.67313">
        <ele>1922.29</ele>
        <time>2018-02-08T14:44:18Z</time>
      </trkpt>
      <trkpt lat="45.63362" lon="6.67315">
        <ele>1922.77</ele>
        <time>2018-02-08T14:44:37Z</time>
      </trkpt>
      <trkpt lat="45.63351" lon="6.67308">
        <ele>1919.89</ele>
        <time>2018-02-08T14:44:42Z</time>
      </trkpt>
      <trkpt lat="45.63339" lon="6.67281">
        <ele>1917.49</ele>
        <time>2018-02-08T14:44:50Z</time>
      </trkpt>
      <trkpt lat="45.6333" lon="6.67276">
        <ele>1915.08</ele>
        <time>2018-02-08T14:44:53Z</time>
      </trkpt>
      <trkpt lat="45.6331" lon="6.67258">
        <ele>1912.2</ele>
        <time>2018-02-08T14:45:02Z</time>
      </trkpt>
      <trkpt lat="45.63303" lon="6.67272">
        <ele>1908.83</ele>
        <time>2018-02-08T14:45:06Z</time>
      </trkpt>
      <trkpt lat="45.633" lon="6.67282">
        <ele>1907.87</ele>
        <time>2018-02-08T14:45:08Z</time>
      </trkpt>
      <trkpt lat="45.63289" lon="6.67285">
        <ele>1903.55</ele>
        <time>2018-02-08T14:45:11Z</time>
      </trkpt>
      <trkpt lat="45.63284" lon="6.67291">
        <ele>1902.11</ele>
        <time>2018-02-08T14:45:13Z</time>
      </trkpt>
      <trkpt lat="45.63268" lon="6.67301">
        <ele>1898.74</ele>
        <time>2018-02-08T14:45:18Z</time>
      </trkpt>
      <trkpt lat="45.63256" lon="6.67308">
        <ele>1895.86</ele>
        <time>2018-02-08T14:45:21Z</time>
      </trkpt>
      <trkpt lat="45.6325" lon="6.67321">
        <ele>1892.01</ele>
        <time>2018-02-08T14:45:24Z</time>
      </trkpt>
      <trkpt lat="45.63248" lon="6.67327">
        <ele>1891.53</ele>
        <time>2018-02-08T14:45:25Z</time>
      </trkpt>
      <trkpt lat="45.63237" lon="6.67341">
        <ele>1888.65</ele>
        <time>2018-02-08T14:45:28Z</time>
      </trkpt>
      <trkpt lat="45.63224" lon="6.67354">
        <ele>1888.17</ele>
        <time>2018-02-08T14:45:33Z</time>
      </trkpt>
      <trkpt lat="45.63208" lon="6.67352">
        <ele>1883.84</ele>
        <time>2018-02-08T14:45:38Z</time>
      </trkpt>
      <trkpt lat="45.63196" lon="6.67368">
        <ele>1880.48</ele>
        <time>2018-02-08T14:45:41Z</time>
      </trkpt>
      <trkpt lat="45.63186" lon="6.67378">
        <ele>1879.51</ele>
        <time>2018-02-08T14:45:47Z</time>
      </trkpt>
      <trkpt lat="45.63174" lon="6.67391">
        <ele>1877.59</ele>
        <time>2018-02-08T14:45:52Z</time>
      </trkpt>
      <trkpt lat="45.63159" lon="6.67371">
        <ele>1874.71</ele>
        <time>2018-02-08T14:45:58Z</time>
      </trkpt>
      <trkpt lat="45.63147" lon="6.67372">
        <ele>1872.3</ele>
        <time>2018-02-08T14:46:01Z</time>
      </trkpt>
      <trkpt lat="45.63128" lon="6.67382">
        <ele>1868.94</ele>
        <time>2018-02-08T14:46:05Z</time>
      </trkpt>
      <trkpt lat="45.63108" lon="6.67401">
        <ele>1866.54</ele>
        <time>2018-02-08T14:46:10Z</time>
      </trkpt>
      <trkpt lat="45.63102" lon="6.67411">
        <ele>1865.09</ele>
        <time>2018-02-08T14:46:12Z</time>
      </trkpt>
      <trkpt lat="45.63093" lon="6.67424">
        <ele>1863.65</ele>
        <time>2018-02-08T14:46:15Z</time>
      </trkpt>
      <trkpt lat="45.63078" lon="6.67422">
        <ele>1861.25</ele>
        <time>2018-02-08T14:46:19Z</time>
      </trkpt>
      <trkpt lat="45.6307" lon="6.67427">
        <ele>1859.33</ele>
        <time>2018-02-08T14:46:23Z</time>
      </trkpt>
      <trkpt lat="45.63054" lon="6.67455">
        <ele>1855.96</ele>
        <time>2018-02-08T14:46:29Z</time>
      </trkpt>
      <trkpt lat="45.63048" lon="6.67465">
        <ele>1854.52</ele>
        <time>2018-02-08T14:46:31Z</time>
      </trkpt>
      <trkpt lat="45.63038" lon="6.67479">
        <ele>1852.6</ele>
        <time>2018-02-08T14:46:34Z</time>
      </trkpt>
      <trkpt lat="45.63021" lon="6.6751">
        <ele>1850.19</ele>
        <time>2018-02-08T14:46:41Z</time>
      </trkpt>
      <trkpt lat="45.63017" lon="6.6751">
        <ele>1849.71</ele>
        <time>2018-02-08T14:46:42Z</time>
      </trkpt>
      <trkpt lat="45.63011" lon="6.67509">
        <ele>1848.75</ele>
        <time>2018-02-08T14:46:43Z</time>
      </trkpt>
      <trkpt lat="45.63006" lon="6.67511">
        <ele>1847.31</ele>
        <time>2018-02-08T14:46:44Z</time>
      </trkpt>
      <trkpt lat="45.63004" lon="6.67514">
        <ele>1846.83</ele>
        <time>2018-02-08T14:46:45Z</time>
      </trkpt>
      <trkpt lat="45.63003" lon="6.67516">
        <ele>1846.35</ele>
        <time>2018-02-08T14:46:46Z</time>
      </trkpt>
      <trkpt lat="45.63003" lon="6.67518">
        <ele>1845.87</ele>
        <time>2018-02-08T14:46:58Z</time>
      </trkpt>
      <trkpt lat="45.63004" lon="6.67516">
        <ele>1846.83</ele>
        <time>2018-02-08T14:47:15Z</time>
      </trkpt>
      <trkpt lat="45.63004" lon="6.67518">
        <ele>1846.83</ele>
        <time>2018-02-08T14:47:40Z</time>
      </trkpt>
      <trkpt lat="45.63004" lon="6.67517">
        <ele>1846.83</ele>
        <time>2018-02-08T14:48:06Z</time>
      </trkpt>
      <trkpt lat="45.63004" lon="6.67517">
        <ele>1847.31</ele>
        <time>2018-02-08T14:48:37Z</time>
      </trkpt>
      <trkpt lat="45.63004" lon="6.67517">
        <ele>1847.31</ele>
        <time>2018-02-08T14:49:07Z</time>
      </trkpt>
      <trkpt lat="45.63004" lon="6.67517">
        <ele>1847.31</ele>
        <time>2018-02-08T14:49:39Z</time>
      </trkpt>
      <trkpt lat="45.63005" lon="6.67518">
        <ele>1847.31</ele>
        <time>2018-02-08T14:50:02Z</time>
      </trkpt>
      <trkpt lat="45.63003" lon="6.6752">
        <ele>1847.31</ele>
        <time>2018-02-08T14:50:15Z</time>
      </trkpt>
      <trkpt lat="45.63001" lon="6.67521">
        <ele>1847.31</ele>
        <time>2018-02-08T14:50:16Z</time>
      </trkpt>
      <trkpt lat="45.62982" lon="6.67529">
        <ele>1843.95</ele>
        <time>2018-02-08T14:50:21Z</time>
      </trkpt>
      <trkpt lat="45.62964" lon="6.67539">
        <ele>1841.06</ele>
        <time>2018-02-08T14:50:25Z</time>
      </trkpt>
      <trkpt lat="45.62954" lon="6.67542">
        <ele>1840.1</ele>
        <time>2018-02-08T14:50:27Z</time>
      </trkpt>
      <trkpt lat="45.62935" lon="6.6755">
        <ele>1836.74</ele>
        <time>2018-02-08T14:50:31Z</time>
      </trkpt>
      <trkpt lat="45.62913" lon="6.67559">
        <ele>1832.89</ele>
        <time>2018-02-08T14:50:35Z</time>
      </trkpt>
      <trkpt lat="45.62893" lon="6.67565">
        <ele>1831.45</ele>
        <time>2018-02-08T14:50:39Z</time>
      </trkpt>
      <trkpt lat="45.62858" lon="6.67583">
        <ele>1828.08</ele>
        <time>2018-02-08T14:50:49Z</time>
      </trkpt>
      <trkpt lat="45.6285" lon="6.67587">
        <ele>1827.6</ele>
        <time>2018-02-08T14:50:51Z</time>
      </trkpt>
      <trkpt lat="45.62846" lon="6.6759">
        <ele>1826.64</ele>
        <time>2018-02-08T14:50:52Z</time>
      </trkpt>
      <trkpt lat="45.62842" lon="6.67593">
        <ele>1826.64</ele>
        <time>2018-02-08T14:50:53Z</time>
      </trkpt>
      <trkpt lat="45.62838" lon="6.67596">
        <ele>1826.16</ele>
        <time>2018-02-08T14:50:54Z</time>
      </trkpt>
      <trkpt lat="45.62835" lon="6.67599">
        <ele>1825.2</ele>
        <time>2018-02-08T14:50:55Z</time>
      </trkpt>
      <trkpt lat="45.62831" lon="6.67604">
        <ele>1825.2</ele>
        <time>2018-02-08T14:50:56Z</time>
      </trkpt>
      <trkpt lat="45.62828" lon="6.67608">
        <ele>1824.72</ele>
        <time>2018-02-08T14:50:57Z</time>
      </trkpt>
      <trkpt lat="45.62821" lon="6.67617">
        <ele>1823.76</ele>
        <time>2018-02-08T14:50:59Z</time>
      </trkpt>
      <trkpt lat="45.62799" lon="6.67642">
        <ele>1819.43</ele>
        <time>2018-02-08T14:51:04Z</time>
      </trkpt>
      <trkpt lat="45.62773" lon="6.67669">
        <ele>1816.07</ele>
        <time>2018-02-08T14:51:13Z</time>
      </trkpt>
      <trkpt lat="45.62749" lon="6.67684">
        <ele>1812.22</ele>
        <time>2018-02-08T14:51:18Z</time>
      </trkpt>
      <trkpt lat="45.6274" lon="6.67692">
        <ele>1810.78</ele>
        <time>2018-02-08T14:51:20Z</time>
      </trkpt>
      <trkpt lat="45.6273" lon="6.67699">
        <ele>1809.82</ele>
        <time>2018-02-08T14:51:22Z</time>
      </trkpt>
      <trkpt lat="45.6272" lon="6.67704">
        <ele>1808.86</ele>
        <time>2018-02-08T14:51:24Z</time>
      </trkpt>
      <trkpt lat="45.6271" lon="6.6771">
        <ele>1807.42</ele>
        <time>2018-02-08T14:51:26Z</time>
      </trkpt>
      <trkpt lat="45.6269" lon="6.67733">
        <ele>1804.05</ele>
        <time>2018-02-08T14:51:31Z</time>
      </trkpt>
      <trkpt lat="45.62663" lon="6.6775">
        <ele>1799.73</ele>
        <time>2018-02-08T14:51:36Z</time>
      </trkpt>
      <trkpt lat="45.62658" lon="6.67753">
        <ele>1799.24</ele>
        <time>2018-02-08T14:51:37Z</time>
      </trkpt>
      <trkpt lat="45.62633" lon="6.67762">
        <ele>1796.36</ele>
        <time>2018-02-08T14:51:41Z</time>
      </trkpt>
      <trkpt lat="45.6262" lon="6.67768">
        <ele>1793.96</ele>
        <time>2018-02-08T14:51:43Z</time>
      </trkpt>
      <trkpt lat="45.626" lon="6.67788">
        <ele>1792.52</ele>
        <time>2018-02-08T14:51:51Z</time>
      </trkpt>
      <trkpt lat="45.62587" lon="6.67797">
        <ele>1790.11</ele>
        <time>2018-02-08T14:51:55Z</time>
      </trkpt>
      <trkpt lat="45.62576" lon="6.67808">
        <ele>1788.67</ele>
        <time>2018-02-08T14:51:58Z</time>
      </trkpt>
      <trkpt lat="45.62565" lon="6.67821">
        <ele>1787.23</ele>
        <time>2018-02-08T14:52:02Z</time>
      </trkpt>
      <trkpt lat="45.62561" lon="6.67808">
        <ele>1785.31</ele>
        <time>2018-02-08T14:52:06Z</time>
      </trkpt>
      <trkpt lat="45.62562" lon="6.67798">
        <ele>1785.31</ele>
        <time>2018-02-08T14:52:08Z</time>
      </trkpt>
      <trkpt lat="45.62548" lon="6.67792">
        <ele>1780.5</ele>
        <time>2018-02-08T14:52:12Z</time>
      </trkpt>
      <trkpt lat="45.62534" lon="6.67803">
        <ele>1776.17</ele>
        <time>2018-02-08T14:52:15Z</time>
      </trkpt>
      <trkpt lat="45.62533" lon="6.67807">
        <ele>1776.17</ele>
        <time>2018-02-08T14:52:16Z</time>
      </trkpt>
      <trkpt lat="45.62514" lon="6.67827">
        <ele>1773.29</ele>
        <time>2018-02-08T14:52:22Z</time>
      </trkpt>
      <trkpt lat="45.625" lon="6.67839">
        <ele>1771.37</ele>
        <time>2018-02-08T14:52:25Z</time>
      </trkpt>
      <trkpt lat="45.62491" lon="6.67852">
        <ele>1769.92</ele>
        <time>2018-02-08T14:52:28Z</time>
      </trkpt>
      <trkpt lat="45.62487" lon="6.67856">
        <ele>1770.41</ele>
        <time>2018-02-08T14:52:32Z</time>
      </trkpt>
      <trkpt lat="45.62476" lon="6.67859">
        <ele>1768.96</ele>
        <time>2018-02-08T14:52:36Z</time>
      </trkpt>
      <trkpt lat="45.6246" lon="6.6787">
        <ele>1765.6</ele>
        <time>2018-02-08T14:52:40Z</time>
      </trkpt>
      <trkpt lat="45.62454" lon="6.67876">
        <ele>1765.12</ele>
        <time>2018-02-08T14:52:42Z</time>
      </trkpt>
      <trkpt lat="45.62442" lon="6.6789">
        <ele>1763.68</ele>
        <time>2018-02-08T14:52:48Z</time>
      </trkpt>
      <trkpt lat="45.62439" lon="6.6787">
        <ele>1761.27</ele>
        <time>2018-02-08T14:52:54Z</time>
      </trkpt>
      <trkpt lat="45.62441" lon="6.6786">
        <ele>1760.31</ele>
        <time>2018-02-08T14:52:58Z</time>
      </trkpt>
      <trkpt lat="45.62441" lon="6.6785">
        <ele>1759.83</ele>
        <time>2018-02-08T14:53:02Z</time>
      </trkpt>
      <trkpt lat="45.62432" lon="6.67826">
        <ele>1757.91</ele>
        <time>2018-02-08T14:53:08Z</time>
      </trkpt>
      <trkpt lat="45.62429" lon="6.67825">
        <ele>1756.95</ele>
        <time>2018-02-08T14:53:09Z</time>
      </trkpt>
      <trkpt lat="45.62427" lon="6.67826">
        <ele>1756.47</ele>
        <time>2018-02-08T14:53:10Z</time>
      </trkpt>
      <trkpt lat="45.62427" lon="6.67828">
        <ele>1755.5</ele>
        <time>2018-02-08T14:53:12Z</time>
      </trkpt>
      <trkpt lat="45.62423" lon="6.6783">
        <ele>1755.5</ele>
        <time>2018-02-08T14:53:18Z</time>
      </trkpt>
      <trkpt lat="45.62403" lon="6.67834">
        <ele>1753.1</ele>
        <time>2018-02-08T14:53:25Z</time>
      </trkpt>
      <trkpt lat="45.62397" lon="6.67834">
        <ele>1752.14</ele>
        <time>2018-02-08T14:53:27Z</time>
      </trkpt>
      <trkpt lat="45.62395" lon="6.67832">
        <ele>1751.18</ele>
        <time>2018-02-08T14:53:30Z</time>
      </trkpt>
      <trkpt lat="45.62392" lon="6.67835">
        <ele>1750.7</ele>
        <time>2018-02-08T14:53:32Z</time>
      </trkpt>
      <trkpt lat="45.62389" lon="6.67837">
        <ele>1750.22</ele>
        <time>2018-02-08T14:53:33Z</time>
      </trkpt>
      <trkpt lat="45.62368" lon="6.67847">
        <ele>1747.33</ele>
        <time>2018-02-08T14:53:39Z</time>
      </trkpt>
      <trkpt lat="45.62365" lon="6.67846">
        <ele>1746.85</ele>
        <time>2018-02-08T14:53:47Z</time>
      </trkpt>
      <trkpt lat="45.6235" lon="6.67851">
        <ele>1744.93</ele>
        <time>2018-02-08T14:53:51Z</time>
      </trkpt>
      <trkpt lat="45.62345" lon="6.67853">
        <ele>1743.97</ele>
        <time>2018-02-08T14:53:52Z</time>
      </trkpt>
      <trkpt lat="45.62341" lon="6.67856">
        <ele>1743.01</ele>
        <time>2018-02-08T14:53:53Z</time>
      </trkpt>
      <trkpt lat="45.62339" lon="6.6786">
        <ele>1742.53</ele>
        <time>2018-02-08T14:53:54Z</time>
      </trkpt>
      <trkpt lat="45.62337" lon="6.67863">
        <ele>1742.53</ele>
        <time>2018-02-08T14:53:55Z</time>
      </trkpt>
      <trkpt lat="45.62336" lon="6.67864">
        <ele>1742.53</ele>
        <time>2018-02-08T14:53:56Z</time>
      </trkpt>
      <trkpt lat="45.62338" lon="6.67865">
        <ele>1743.01</ele>
        <time>2018-02-08T14:54:08Z</time>
      </trkpt>
      <trkpt lat="45.62334" lon="6.67866">
        <ele>1742.53</ele>
        <time>2018-02-08T14:54:28Z</time>
      </trkpt>
      <trkpt lat="45.62331" lon="6.67857">
        <ele>1742.53</ele>
        <time>2018-02-08T14:54:31Z</time>
      </trkpt>
      <trkpt lat="45.62321" lon="6.67853">
        <ele>1738.2</ele>
        <time>2018-02-08T14:54:37Z</time>
      </trkpt>
      <trkpt lat="45.62313" lon="6.67846">
        <ele>1736.76</ele>
        <time>2018-02-08T14:54:43Z</time>
      </trkpt>
      <trkpt lat="45.62312" lon="6.67839">
        <ele>1736.28</ele>
        <time>2018-02-08T14:54:45Z</time>
      </trkpt>
      <trkpt lat="45.62299" lon="6.67828">
        <ele>1733.88</ele>
        <time>2018-02-08T14:54:55Z</time>
      </trkpt>
      <trkpt lat="45.62281" lon="6.67822">
        <ele>1732.43</ele>
        <time>2018-02-08T14:55:06Z</time>
      </trkpt>
      <trkpt lat="45.62258" lon="6.67808">
        <ele>1728.59</ele>
        <time>2018-02-08T14:55:14Z</time>
      </trkpt>
      <trkpt lat="45.62242" lon="6.67799">
        <ele>1726.18</ele>
        <time>2018-02-08T14:55:18Z</time>
      </trkpt>
      <trkpt lat="45.62225" lon="6.67801">
        <ele>1725.22</ele>
        <time>2018-02-08T14:55:22Z</time>
      </trkpt>
      <trkpt lat="45.62215" lon="6.67804">
        <ele>1725.22</ele>
        <time>2018-02-08T14:55:32Z</time>
      </trkpt>
      <trkpt lat="45.62217" lon="6.67805">
        <ele>1725.22</ele>
        <time>2018-02-08T14:56:03Z</time>
      </trkpt>
      <trkpt lat="45.62215" lon="6.67806">
        <ele>1724.74</ele>
        <time>2018-02-08T14:56:17Z</time>
      </trkpt>
      <trkpt lat="45.62215" lon="6.67805">
        <ele>1724.74</ele>
        <time>2018-02-08T14:56:26Z</time>
      </trkpt>
      <trkpt lat="45.62202" lon="6.6781">
        <ele>1722.82</ele>
        <time>2018-02-08T14:56:34Z</time>
      </trkpt>
      <trkpt lat="45.62198" lon="6.67806">
        <ele>1721.86</ele>
        <time>2018-02-08T14:56:36Z</time>
      </trkpt>
      <trkpt lat="45.62182" lon="6.67803">
        <ele>1718.97</ele>
        <time>2018-02-08T14:56:40Z</time>
      </trkpt>
      <trkpt lat="45.62175" lon="6.67798">
        <ele>1717.53</ele>
        <time>2018-02-08T14:56:42Z</time>
      </trkpt>
      <trkpt lat="45.62169" lon="6.6779">
        <ele>1717.05</ele>
        <time>2018-02-08T14:56:44Z</time>
      </trkpt>
      <trkpt lat="45.6214" lon="6.67782">
        <ele>1713.69</ele>
        <time>2018-02-08T14:56:54Z</time>
      </trkpt>
      <trkpt lat="45.6213" lon="6.67778">
        <ele>1711.76</ele>
        <time>2018-02-08T14:56:57Z</time>
      </trkpt>
      <trkpt lat="45.62113" lon="6.67777">
        <ele>1708.88</ele>
        <time>2018-02-08T14:57:00Z</time>
      </trkpt>
      <trkpt lat="45.62103" lon="6.67774">
        <ele>1707.92</ele>
        <time>2018-02-08T14:57:02Z</time>
      </trkpt>
      <trkpt lat="45.62089" lon="6.67768">
        <ele>1706</ele>
        <time>2018-02-08T14:57:05Z</time>
      </trkpt>
      <trkpt lat="45.62045" lon="6.6777">
        <ele>1701.67</ele>
        <time>2018-02-08T14:57:14Z</time>
      </trkpt>
      <trkpt lat="45.62034" lon="6.67769">
        <ele>1700.23</ele>
        <time>2018-02-08T14:57:16Z</time>
      </trkpt>
      <trkpt lat="45.6203" lon="6.67768">
        <ele>1700.23</ele>
        <time>2018-02-08T14:57:17Z</time>
      </trkpt>
      <trkpt lat="45.62001" lon="6.67758">
        <ele>1698.79</ele>
        <time>2018-02-08T14:57:25Z</time>
      </trkpt>
      <trkpt lat="45.61983" lon="6.6775">
        <ele>1695.9</ele>
        <time>2018-02-08T14:57:29Z</time>
      </trkpt>
      <trkpt lat="45.61962" lon="6.67749">
        <ele>1692.06</ele>
        <time>2018-02-08T14:57:35Z</time>
      </trkpt>
      <trkpt lat="45.61954" lon="6.6775">
        <ele>1691.1</ele>
        <time>2018-02-08T14:57:37Z</time>
      </trkpt>
      <trkpt lat="45.6193" lon="6.67751">
        <ele>1687.73</ele>
        <time>2018-02-08T14:57:42Z</time>
      </trkpt>
      <trkpt lat="45.61908" lon="6.67758">
        <ele>1685.33</ele>
        <time>2018-02-08T14:57:47Z</time>
      </trkpt>
      <trkpt lat="45.61885" lon="6.67763">
        <ele>1682.93</ele>
        <time>2018-02-08T14:57:52Z</time>
      </trkpt>
      <trkpt lat="45.61877" lon="6.67766">
        <ele>1681.48</ele>
        <time>2018-02-08T14:57:54Z</time>
      </trkpt>
      <trkpt lat="45.61863" lon="6.67768">
        <ele>1679.08</ele>
        <time>2018-02-08T14:57:58Z</time>
      </trkpt>
      <trkpt lat="45.61844" lon="6.67776">
        <ele>1675.72</ele>
        <time>2018-02-08T14:58:02Z</time>
      </trkpt>
      <trkpt lat="45.61805" lon="6.67782">
        <ele>1672.83</ele>
        <time>2018-02-08T14:58:11Z</time>
      </trkpt>
      <trkpt lat="45.6176" lon="6.67785">
        <ele>1669.95</ele>
        <time>2018-02-08T14:58:22Z</time>
      </trkpt>
      <trkpt lat="45.61722" lon="6.67789">
        <ele>1666.58</ele>
        <time>2018-02-08T14:58:32Z</time>
      </trkpt>
      <trkpt lat="45.61697" lon="6.67793">
        <ele>1663.7</ele>
        <time>2018-02-08T14:58:38Z</time>
      </trkpt>
      <trkpt lat="45.61656" lon="6.67794">
        <ele>1660.81</ele>
        <time>2018-02-08T14:58:49Z</time>
      </trkpt>
      <trkpt lat="45.61653" lon="6.67796">
        <ele>1660.81</ele>
        <time>2018-02-08T14:58:59Z</time>
      </trkpt>
      <trkpt lat="45.61653" lon="6.67796">
        <ele>1661.3</ele>
        <time>2018-02-08T14:59:18Z</time>
      </trkpt>
      <trkpt lat="45.61636" lon="6.67796">
        <ele>1659.37</ele>
        <time>2018-02-08T14:59:37Z</time>
      </trkpt>
      <trkpt lat="45.61627" lon="6.67796">
        <ele>1658.41</ele>
        <time>2018-02-08T14:59:39Z</time>
      </trkpt>
      <trkpt lat="45.61612" lon="6.67794">
        <ele>1657.93</ele>
        <time>2018-02-08T14:59:42Z</time>
      </trkpt>
      <trkpt lat="45.61599" lon="6.67791">
        <ele>1656.97</ele>
        <time>2018-02-08T14:59:45Z</time>
      </trkpt>
      <trkpt lat="45.61594" lon="6.6779">
        <ele>1656.97</ele>
        <time>2018-02-08T14:59:46Z</time>
      </trkpt>
      <trkpt lat="45.61566" lon="6.67784">
        <ele>1653.12</ele>
        <time>2018-02-08T14:59:51Z</time>
      </trkpt>
      <trkpt lat="45.61561" lon="6.67782">
        <ele>1653.12</ele>
        <time>2018-02-08T14:59:52Z</time>
      </trkpt>
      <trkpt lat="45.61536" lon="6.67781">
        <ele>1649.76</ele>
        <time>2018-02-08T14:59:56Z</time>
      </trkpt>
      <trkpt lat="45.61509" lon="6.67782">
        <ele>1646.88</ele>
        <time>2018-02-08T15:00:00Z</time>
      </trkpt>
      <trkpt lat="45.61468" lon="6.67781">
        <ele>1643.51</ele>
        <time>2018-02-08T15:00:07Z</time>
      </trkpt>
      <trkpt lat="45.61434" lon="6.67781">
        <ele>1640.63</ele>
        <time>2018-02-08T15:00:13Z</time>
      </trkpt>
      <trkpt lat="45.61422" lon="6.6778">
        <ele>1639.67</ele>
        <time>2018-02-08T15:00:15Z</time>
      </trkpt>
      <trkpt lat="45.61393" lon="6.67783">
        <ele>1638.22</ele>
        <time>2018-02-08T15:00:20Z</time>
      </trkpt>
      <trkpt lat="45.61376" lon="6.67786">
        <ele>1635.82</ele>
        <time>2018-02-08T15:00:23Z</time>
      </trkpt>
      <trkpt lat="45.61338" lon="6.67784">
        <ele>1632.94</ele>
        <time>2018-02-08T15:00:30Z</time>
      </trkpt>
      <trkpt lat="45.61332" lon="6.67782">
        <ele>1631.98</ele>
        <time>2018-02-08T15:00:31Z</time>
      </trkpt>
      <trkpt lat="45.61327" lon="6.6778">
        <ele>1631.49</ele>
        <time>2018-02-08T15:00:32Z</time>
      </trkpt>
      <trkpt lat="45.61322" lon="6.67777">
        <ele>1631.01</ele>
        <time>2018-02-08T15:00:33Z</time>
      </trkpt>
      <trkpt lat="45.61282" lon="6.67769">
        <ele>1630.05</ele>
        <time>2018-02-08T15:00:44Z</time>
      </trkpt>
      <trkpt lat="45.61256" lon="6.6777">
        <ele>1626.21</ele>
        <time>2018-02-08T15:00:51Z</time>
      </trkpt>
      <trkpt lat="45.6125" lon="6.6777">
        <ele>1625.25</ele>
        <time>2018-02-08T15:00:52Z</time>
      </trkpt>
      <trkpt lat="45.61246" lon="6.6777">
        <ele>1625.73</ele>
        <time>2018-02-08T15:00:53Z</time>
      </trkpt>
      <trkpt lat="45.61199" lon="6.67764">
        <ele>1622.84</ele>
        <time>2018-02-08T15:01:03Z</time>
      </trkpt>
      <trkpt lat="45.61164" lon="6.67756">
        <ele>1620.92</ele>
        <time>2018-02-08T15:01:15Z</time>
      </trkpt>
      <trkpt lat="45.61141" lon="6.67739">
        <ele>1620.44</ele>
        <time>2018-02-08T15:01:27Z</time>
      </trkpt>
      <trkpt lat="45.61136" lon="6.67728">
        <ele>1621.4</ele>
        <time>2018-02-08T15:01:39Z</time>
      </trkpt>
      <trkpt lat="45.61118" lon="6.67714">
        <ele>1619.96</ele>
        <time>2018-02-08T15:01:51Z</time>
      </trkpt>
      <trkpt lat="45.61105" lon="6.67711">
        <ele>1620.92</ele>
        <time>2018-02-08T15:02:05Z</time>
      </trkpt>
      <trkpt lat="45.61102" lon="6.67711">
        <ele>1621.88</ele>
        <time>2018-02-08T15:02:17Z</time>
      </trkpt>
      <trkpt lat="45.61097" lon="6.67708">
        <ele>1621.4</ele>
        <time>2018-02-08T15:02:25Z</time>
      </trkpt>
      <trkpt lat="45.61097" lon="6.67706">
        <ele>1621.4</ele>
        <time>2018-02-08T15:02:26Z</time>
      </trkpt>
      <trkpt lat="45.61096" lon="6.67703">
        <ele>1620.44</ele>
        <time>2018-02-08T15:02:31Z</time>
      </trkpt>
      <trkpt lat="45.61094" lon="6.67703">
        <ele>1619.96</ele>
        <time>2018-02-08T15:02:32Z</time>
      </trkpt>
      <trkpt lat="45.61094" lon="6.677">
        <ele>1620.44</ele>
        <time>2018-02-08T15:02:40Z</time>
      </trkpt>
      <trkpt lat="45.61093" lon="6.67699">
        <ele>1620.44</ele>
        <time>2018-02-08T15:02:41Z</time>
      </trkpt>
      <trkpt lat="45.61091" lon="6.67698">
        <ele>1620.92</ele>
        <time>2018-02-08T15:02:42Z</time>
      </trkpt>
      <trkpt lat="45.6109" lon="6.67697">
        <ele>1620.44</ele>
        <time>2018-02-08T15:02:43Z</time>
      </trkpt>
      <trkpt lat="45.61089" lon="6.67696">
        <ele>1620.44</ele>
        <time>2018-02-08T15:02:44Z</time>
      </trkpt>
      <trkpt lat="45.61087" lon="6.67696">
        <ele>1620.44</ele>
        <time>2018-02-08T15:02:45Z</time>
      </trkpt>
      <trkpt lat="45.61059" lon="6.67686">
        <ele>1619</ele>
        <time>2018-02-08T15:02:59Z</time>
      </trkpt>
      <trkpt lat="45.61037" lon="6.67677">
        <ele>1619</ele>
        <time>2018-02-08T15:03:13Z</time>
      </trkpt>
      <trkpt lat="45.61035" lon="6.67676">
        <ele>1619</ele>
        <time>2018-02-08T15:03:15Z</time>
      </trkpt>
      <trkpt lat="45.61032" lon="6.67673">
        <ele>1619.48</ele>
        <time>2018-02-08T15:03:18Z</time>
      </trkpt>
      <trkpt lat="45.61031" lon="6.67672">
        <ele>1619.48</ele>
        <time>2018-02-08T15:03:19Z</time>
      </trkpt>
      <trkpt lat="45.6103" lon="6.67671">
        <ele>1619.48</ele>
        <time>2018-02-08T15:03:20Z</time>
      </trkpt>
      <trkpt lat="45.61029" lon="6.6767">
        <ele>1619.48</ele>
        <time>2018-02-08T15:03:21Z</time>
      </trkpt>
      <trkpt lat="45.61028" lon="6.67669">
        <ele>1619.48</ele>
        <time>2018-02-08T15:03:22Z</time>
      </trkpt>
      <trkpt lat="45.61027" lon="6.67669">
        <ele>1619.48</ele>
        <time>2018-02-08T15:03:23Z</time>
      </trkpt>
      <trkpt lat="45.61017" lon="6.67659">
        <ele>1619.96</ele>
        <time>2018-02-08T15:03:36Z</time>
      </trkpt>
      <trkpt lat="45.61017" lon="6.67657">
        <ele>1619.96</ele>
        <time>2018-02-08T15:03:37Z</time>
      </trkpt>
      <trkpt lat="45.61016" lon="6.67656">
        <ele>1619.96</ele>
        <time>2018-02-08T15:03:38Z</time>
      </trkpt>
      <trkpt lat="45.61015" lon="6.67655">
        <ele>1619.96</ele>
        <time>2018-02-08T15:03:39Z</time>
      </trkpt>
      <trkpt lat="45.61014" lon="6.67655">
        <ele>1619.48</ele>
        <time>2018-02-08T15:03:40Z</time>
      </trkpt>
      <trkpt lat="45.61005" lon="6.67642">
        <ele>1619.96</ele>
        <time>2018-02-08T15:03:50Z</time>
      </trkpt>
      <trkpt lat="45.60982" lon="6.67609">
        <ele>1617.56</ele>
        <time>2018-02-08T15:04:03Z</time>
      </trkpt>
      <trkpt lat="45.60966" lon="6.6759">
        <ele>1617.56</ele>
        <time>2018-02-08T15:04:14Z</time>
      </trkpt>
      <trkpt lat="45.60944" lon="6.67572">
        <ele>1616.59</ele>
        <time>2018-02-08T15:04:30Z</time>
      </trkpt>
      <trkpt lat="45.60926" lon="6.67559">
        <ele>1616.59</ele>
        <time>2018-02-08T15:04:41Z</time>
      </trkpt>
      <trkpt lat="45.60896" lon="6.67542">
        <ele>1615.63</ele>
        <time>2018-02-08T15:04:55Z</time>
      </trkpt>
      <trkpt lat="45.60892" lon="6.67542">
        <ele>1616.59</ele>
        <time>2018-02-08T15:04:58Z</time>
      </trkpt>
      <trkpt lat="45.60889" lon="6.67541">
        <ele>1616.11</ele>
        <time>2018-02-08T15:05:00Z</time>
      </trkpt>
      <trkpt lat="45.60863" lon="6.67525">
        <ele>1615.63</ele>
        <time>2018-02-08T15:05:15Z</time>
      </trkpt>
      <trkpt lat="45.60824" lon="6.67504">
        <ele>1614.19</ele>
        <time>2018-02-08T15:05:34Z</time>
      </trkpt>
      <trkpt lat="45.60787" lon="6.67492">
        <ele>1613.23</ele>
        <time>2018-02-08T15:05:53Z</time>
      </trkpt>
      <trkpt lat="45.60785" lon="6.67492">
        <ele>1613.71</ele>
        <time>2018-02-08T15:05:54Z</time>
      </trkpt>
      <trkpt lat="45.60784" lon="6.67491">
        <ele>1613.71</ele>
        <time>2018-02-08T15:05:55Z</time>
      </trkpt>
      <trkpt lat="45.60774" lon="6.67486">
        <ele>1613.71</ele>
        <time>2018-02-08T15:06:05Z</time>
      </trkpt>
      <trkpt lat="45.60773" lon="6.67485">
        <ele>1613.23</ele>
        <time>2018-02-08T15:06:06Z</time>
      </trkpt>
      <trkpt lat="45.60771" lon="6.67485">
        <ele>1613.23</ele>
        <time>2018-02-08T15:06:07Z</time>
      </trkpt>
      <trkpt lat="45.6077" lon="6.67484">
        <ele>1613.71</ele>
        <time>2018-02-08T15:06:08Z</time>
      </trkpt>
      <trkpt lat="45.60769" lon="6.67484">
        <ele>1613.71</ele>
        <time>2018-02-08T15:06:09Z</time>
      </trkpt>
      <trkpt lat="45.60767" lon="6.67484">
        <ele>1613.23</ele>
        <time>2018-02-08T15:06:10Z</time>
      </trkpt>
      <trkpt lat="45.60738" lon="6.67471">
        <ele>1611.79</ele>
        <time>2018-02-08T15:06:23Z</time>
      </trkpt>
      <trkpt lat="45.60731" lon="6.67465">
        <ele>1610.35</ele>
        <time>2018-02-08T15:06:25Z</time>
      </trkpt>
      <trkpt lat="45.60727" lon="6.67461">
        <ele>1610.35</ele>
        <time>2018-02-08T15:06:26Z</time>
      </trkpt>
      <trkpt lat="45.6071" lon="6.67443">
        <ele>1608.42</ele>
        <time>2018-02-08T15:06:30Z</time>
      </trkpt>
      <trkpt lat="45.60697" lon="6.67428">
        <ele>1606.98</ele>
        <time>2018-02-08T15:06:33Z</time>
      </trkpt>
      <trkpt lat="45.60674" lon="6.67401">
        <ele>1605.06</ele>
        <time>2018-02-08T15:06:38Z</time>
      </trkpt>
      <trkpt lat="45.60669" lon="6.67397">
        <ele>1604.58</ele>
        <time>2018-02-08T15:06:39Z</time>
      </trkpt>
      <trkpt lat="45.60652" lon="6.67385">
        <ele>1602.17</ele>
        <time>2018-02-08T15:06:42Z</time>
      </trkpt>
      <trkpt lat="45.60646" lon="6.67383">
        <ele>1601.69</ele>
        <time>2018-02-08T15:06:43Z</time>
      </trkpt>
      <trkpt lat="45.6064" lon="6.67383">
        <ele>1601.21</ele>
        <time>2018-02-08T15:06:44Z</time>
      </trkpt>
      <trkpt lat="45.60627" lon="6.67386">
        <ele>1598.81</ele>
        <time>2018-02-08T15:06:46Z</time>
      </trkpt>
      <trkpt lat="45.60622" lon="6.67387">
        <ele>1598.33</ele>
        <time>2018-02-08T15:06:47Z</time>
      </trkpt>
      <trkpt lat="45.60617" lon="6.67388">
        <ele>1597.85</ele>
        <time>2018-02-08T15:06:48Z</time>
      </trkpt>
      <trkpt lat="45.60613" lon="6.6739">
        <ele>1597.37</ele>
        <time>2018-02-08T15:06:49Z</time>
      </trkpt>
      <trkpt lat="45.60596" lon="6.67392">
        <ele>1596.89</ele>
        <time>2018-02-08T15:06:58Z</time>
      </trkpt>
      <trkpt lat="45.60599" lon="6.67394">
        <ele>1596.89</ele>
        <time>2018-02-08T15:07:22Z</time>
      </trkpt>
      <trkpt lat="45.60599" lon="6.67395">
        <ele>1596.89</ele>
        <time>2018-02-08T15:07:49Z</time>
      </trkpt>
      <trkpt lat="45.60599" lon="6.67395">
        <ele>1596.41</ele>
        <time>2018-02-08T15:08:13Z</time>
      </trkpt>
      <trkpt lat="45.60598" lon="6.67395">
        <ele>1596.89</ele>
        <time>2018-02-08T15:08:40Z</time>
      </trkpt>
      <trkpt lat="45.60598" lon="6.67396">
        <ele>1596.89</ele>
        <time>2018-02-08T15:09:05Z</time>
      </trkpt>
      <trkpt lat="45.60596" lon="6.67394">
        <ele>1597.37</ele>
        <time>2018-02-08T15:09:15Z</time>
      </trkpt>
      <trkpt lat="45.60594" lon="6.67395">
        <ele>1597.37</ele>
        <time>2018-02-08T15:09:36Z</time>
      </trkpt>
      <trkpt lat="45.60593" lon="6.67395">
        <ele>1596.89</ele>
        <time>2018-02-08T15:09:37Z</time>
      </trkpt>
      <trkpt lat="45.60592" lon="6.67395">
        <ele>1596.89</ele>
        <time>2018-02-08T15:09:38Z</time>
      </trkpt>
      <trkpt lat="45.6059" lon="6.67393">
        <ele>1596.89</ele>
        <time>2018-02-08T15:09:39Z</time>
      </trkpt>
      <trkpt lat="45.60588" lon="6.67391">
        <ele>1596.41</ele>
        <time>2018-02-08T15:09:40Z</time>
      </trkpt>
      <trkpt lat="45.60551" lon="6.67372">
        <ele>1594</ele>
        <time>2018-02-08T15:09:51Z</time>
      </trkpt>
      <trkpt lat="45.60547" lon="6.67368">
        <ele>1593.52</ele>
        <time>2018-02-08T15:09:52Z</time>
      </trkpt>
      <trkpt lat="45.60515" lon="6.67339">
        <ele>1590.16</ele>
        <time>2018-02-08T15:09:59Z</time>
      </trkpt>
      <trkpt lat="45.60489" lon="6.67311">
        <ele>1586.79</ele>
        <time>2018-02-08T15:10:04Z</time>
      </trkpt>
      <trkpt lat="45.60472" lon="6.67295">
        <ele>1583.91</ele>
        <time>2018-02-08T15:10:07Z</time>
      </trkpt>
      <trkpt lat="45.60459" lon="6.67287">
        <ele>1583.43</ele>
        <time>2018-02-08T15:10:09Z</time>
      </trkpt>
      <trkpt lat="45.6044" lon="6.6728">
        <ele>1581.03</ele>
        <time>2018-02-08T15:10:12Z</time>
      </trkpt>
      <trkpt lat="45.60434" lon="6.67278">
        <ele>1581.03</ele>
        <time>2018-02-08T15:10:13Z</time>
      </trkpt>
      <trkpt lat="45.60427" lon="6.67278">
        <ele>1580.06</ele>
        <time>2018-02-08T15:10:14Z</time>
      </trkpt>
      <trkpt lat="45.60421" lon="6.67277">
        <ele>1579.1</ele>
        <time>2018-02-08T15:10:15Z</time>
      </trkpt>
      <trkpt lat="45.60415" lon="6.67277">
        <ele>1579.1</ele>
        <time>2018-02-08T15:10:16Z</time>
      </trkpt>
      <trkpt lat="45.60402" lon="6.67275">
        <ele>1577.66</ele>
        <time>2018-02-08T15:10:18Z</time>
      </trkpt>
      <trkpt lat="45.6039" lon="6.67273">
        <ele>1576.7</ele>
        <time>2018-02-08T15:10:20Z</time>
      </trkpt>
      <trkpt lat="45.60381" lon="6.67269">
        <ele>1575.74</ele>
        <time>2018-02-08T15:10:22Z</time>
      </trkpt>
      <trkpt lat="45.60359" lon="6.67259">
        <ele>1572.37</ele>
        <time>2018-02-08T15:10:26Z</time>
      </trkpt>
      <trkpt lat="45.6035" lon="6.67256">
        <ele>1572.37</ele>
        <time>2018-02-08T15:10:28Z</time>
      </trkpt>
      <trkpt lat="45.60345" lon="6.67254">
        <ele>1571.89</ele>
        <time>2018-02-08T15:10:29Z</time>
      </trkpt>
      <trkpt lat="45.6034" lon="6.67252">
        <ele>1571.89</ele>
        <time>2018-02-08T15:10:30Z</time>
      </trkpt>
      <trkpt lat="45.60298" lon="6.67222">
        <ele>1567.57</ele>
        <time>2018-02-08T15:10:39Z</time>
      </trkpt>
      <trkpt lat="45.60288" lon="6.67211">
        <ele>1566.12</ele>
        <time>2018-02-08T15:10:41Z</time>
      </trkpt>
      <trkpt lat="45.6028" lon="6.672">
        <ele>1565.16</ele>
        <time>2018-02-08T15:10:43Z</time>
      </trkpt>
      <trkpt lat="45.60277" lon="6.67195">
        <ele>1564.68</ele>
        <time>2018-02-08T15:10:44Z</time>
      </trkpt>
      <trkpt lat="45.60264" lon="6.67175">
        <ele>1563.24</ele>
        <time>2018-02-08T15:10:48Z</time>
      </trkpt>
      <trkpt lat="45.60262" lon="6.6717">
        <ele>1562.76</ele>
        <time>2018-02-08T15:10:49Z</time>
      </trkpt>
      <trkpt lat="45.6026" lon="6.67166">
        <ele>1562.76</ele>
        <time>2018-02-08T15:10:50Z</time>
      </trkpt>
      <trkpt lat="45.60258" lon="6.67162">
        <ele>1562.28</ele>
        <time>2018-02-08T15:10:51Z</time>
      </trkpt>
      <trkpt lat="45.60257" lon="6.67159">
        <ele>1562.28</ele>
        <time>2018-02-08T15:10:52Z</time>
      </trkpt>
      <trkpt lat="45.60252" lon="6.67154">
        <ele>1560.84</ele>
        <time>2018-02-08T15:10:54Z</time>
      </trkpt>
      <trkpt lat="45.6025" lon="6.67155">
        <ele>1559.88</ele>
        <time>2018-02-08T15:10:56Z</time>
      </trkpt>
      <trkpt lat="45.60242" lon="6.67152">
        <ele>1557.47</ele>
        <time>2018-02-08T15:11:00Z</time>
      </trkpt>
      <trkpt lat="45.60236" lon="6.67152">
        <ele>1554.59</ele>
        <time>2018-02-08T15:11:01Z</time>
      </trkpt>
      <trkpt lat="45.60232" lon="6.67154">
        <ele>1554.11</ele>
        <time>2018-02-08T15:11:02Z</time>
      </trkpt>
      <trkpt lat="45.6023" lon="6.67155">
        <ele>1553.63</ele>
        <time>2018-02-08T15:11:03Z</time>
      </trkpt>
      <trkpt lat="45.60228" lon="6.67155">
        <ele>1555.07</ele>
        <time>2018-02-08T15:11:04Z</time>
      </trkpt>
      <trkpt lat="45.60227" lon="6.67141">
        <ele>1553.15</ele>
        <time>2018-02-08T15:11:07Z</time>
      </trkpt>
      <trkpt lat="45.60229" lon="6.6713">
        <ele>1551.71</ele>
        <time>2018-02-08T15:11:10Z</time>
      </trkpt>
      <trkpt lat="45.60229" lon="6.67122">
        <ele>1551.22</ele>
        <time>2018-02-08T15:11:13Z</time>
      </trkpt>
      <trkpt lat="45.60221" lon="6.67131">
        <ele>1547.86</ele>
        <time>2018-02-08T15:11:18Z</time>
      </trkpt>
      <trkpt lat="45.60206" lon="6.67128">
        <ele>1544.5</ele>
        <time>2018-02-08T15:11:22Z</time>
      </trkpt>
      <trkpt lat="45.60196" lon="6.67129">
        <ele>1541.13</ele>
        <time>2018-02-08T15:11:25Z</time>
      </trkpt>
      <trkpt lat="45.60192" lon="6.67131">
        <ele>1540.65</ele>
        <time>2018-02-08T15:11:26Z</time>
      </trkpt>
      <trkpt lat="45.60189" lon="6.67128">
        <ele>1539.21</ele>
        <time>2018-02-08T15:11:27Z</time>
      </trkpt>
      <trkpt lat="45.60188" lon="6.67126">
        <ele>1539.21</ele>
        <time>2018-02-08T15:11:28Z</time>
      </trkpt>
      <trkpt lat="45.60186" lon="6.67123">
        <ele>1538.73</ele>
        <time>2018-02-08T15:11:29Z</time>
      </trkpt>
      <trkpt lat="45.60183" lon="6.67123">
        <ele>1538.73</ele>
        <time>2018-02-08T15:11:30Z</time>
      </trkpt>
      <trkpt lat="45.60181" lon="6.67125">
        <ele>1537.77</ele>
        <time>2018-02-08T15:11:31Z</time>
      </trkpt>
      <trkpt lat="45.6018" lon="6.67126">
        <ele>1535.84</ele>
        <time>2018-02-08T15:11:32Z</time>
      </trkpt>
      <trkpt lat="45.60178" lon="6.67126">
        <ele>1536.32</ele>
        <time>2018-02-08T15:11:33Z</time>
      </trkpt>
      <trkpt lat="45.60177" lon="6.67125">
        <ele>1535.84</ele>
        <time>2018-02-08T15:11:34Z</time>
      </trkpt>
      <trkpt lat="45.60175" lon="6.67123">
        <ele>1536.32</ele>
        <time>2018-02-08T15:11:35Z</time>
      </trkpt>
      <trkpt lat="45.60171" lon="6.67124">
        <ele>1536.32</ele>
        <time>2018-02-08T15:11:36Z</time>
      </trkpt>
      <trkpt lat="45.60167" lon="6.67124">
        <ele>1534.4</ele>
        <time>2018-02-08T15:11:37Z</time>
      </trkpt>
      <trkpt lat="45.60163" lon="6.67122">
        <ele>1532.96</ele>
        <time>2018-02-08T15:11:38Z</time>
      </trkpt>
      <trkpt lat="45.60154" lon="6.6712">
        <ele>1531.04</ele>
        <time>2018-02-08T15:11:40Z</time>
      </trkpt>
      <trkpt lat="45.60136" lon="6.67125">
        <ele>1526.23</ele>
        <time>2018-02-08T15:11:45Z</time>
      </trkpt>
      <trkpt lat="45.60124" lon="6.67121">
        <ele>1523.83</ele>
        <time>2018-02-08T15:11:48Z</time>
      </trkpt>
      <trkpt lat="45.60121" lon="6.67122">
        <ele>1522.39</ele>
        <time>2018-02-08T15:11:49Z</time>
      </trkpt>
      <trkpt lat="45.60099" lon="6.67122">
        <ele>1516.62</ele>
        <time>2018-02-08T15:11:55Z</time>
      </trkpt>
      <trkpt lat="45.6009" lon="6.67118">
        <ele>1513.73</ele>
        <time>2018-02-08T15:11:58Z</time>
      </trkpt>
      <trkpt lat="45.60086" lon="6.67121">
        <ele>1512.29</ele>
        <time>2018-02-08T15:12:02Z</time>
      </trkpt>
      <trkpt lat="45.60079" lon="6.67133">
        <ele>1509.41</ele>
        <time>2018-02-08T15:12:06Z</time>
      </trkpt>
      <trkpt lat="45.60068" lon="6.67144">
        <ele>1507.48</ele>
        <time>2018-02-08T15:12:14Z</time>
      </trkpt>
      <trkpt lat="45.60067" lon="6.67145">
        <ele>1507</ele>
        <time>2018-02-08T15:12:15Z</time>
      </trkpt>
      <trkpt lat="45.60064" lon="6.67147">
        <ele>1506.04</ele>
        <time>2018-02-08T15:12:17Z</time>
      </trkpt>
      <trkpt lat="45.60062" lon="6.67143">
        <ele>1506.04</ele>
        <time>2018-02-08T15:12:25Z</time>
      </trkpt>
      <trkpt lat="45.60061" lon="6.67139">
        <ele>1505.56</ele>
        <time>2018-02-08T15:12:40Z</time>
      </trkpt>
      <trkpt lat="45.60061" lon="6.67136">
        <ele>1506.04</ele>
        <time>2018-02-08T15:12:58Z</time>
      </trkpt>
      <trkpt lat="45.60061" lon="6.67131">
        <ele>1506.04</ele>
        <time>2018-02-08T15:13:21Z</time>
      </trkpt>
      <trkpt lat="45.60061" lon="6.67129">
        <ele>1506.04</ele>
        <time>2018-02-08T15:13:22Z</time>
      </trkpt>
      <trkpt lat="45.60056" lon="6.6709">
        <ele>1503.16</ele>
        <time>2018-02-08T15:13:34Z</time>
      </trkpt>
      <trkpt lat="45.60049" lon="6.67064">
        <ele>1500.76</ele>
        <time>2018-02-08T15:13:39Z</time>
      </trkpt>
      <trkpt lat="45.6003" lon="6.67034">
        <ele>1497.39</ele>
        <time>2018-02-08T15:13:46Z</time>
      </trkpt>
      <trkpt lat="45.60026" lon="6.67032">
        <ele>1496.91</ele>
        <time>2018-02-08T15:13:47Z</time>
      </trkpt>
      <trkpt lat="45.60007" lon="6.67024">
        <ele>1494.51</ele>
        <time>2018-02-08T15:13:51Z</time>
      </trkpt>
      <trkpt lat="45.60003" lon="6.67023">
        <ele>1494.51</ele>
        <time>2018-02-08T15:13:52Z</time>
      </trkpt>
      <trkpt lat="45.59991" lon="6.6702">
        <ele>1492.58</ele>
        <time>2018-02-08T15:13:55Z</time>
      </trkpt>
      <trkpt lat="45.59964" lon="6.67019">
        <ele>1489.7</ele>
        <time>2018-02-08T15:14:02Z</time>
      </trkpt>
      <trkpt lat="45.59937" lon="6.67015">
        <ele>1486.34</ele>
        <time>2018-02-08T15:14:09Z</time>
      </trkpt>
      <trkpt lat="45.59928" lon="6.6701">
        <ele>1486.34</ele>
        <time>2018-02-08T15:14:11Z</time>
      </trkpt>
      <trkpt lat="45.59908" lon="6.6699">
        <ele>1482.97</ele>
        <time>2018-02-08T15:14:17Z</time>
      </trkpt>
      <trkpt lat="45.59905" lon="6.66986">
        <ele>1482.97</ele>
        <time>2018-02-08T15:14:18Z</time>
      </trkpt>
      <trkpt lat="45.59901" lon="6.66982">
        <ele>1482.01</ele>
        <time>2018-02-08T15:14:19Z</time>
      </trkpt>
      <trkpt lat="45.59897" lon="6.66977">
        <ele>1481.53</ele>
        <time>2018-02-08T15:14:20Z</time>
      </trkpt>
      <trkpt lat="45.59884" lon="6.66959">
        <ele>1480.57</ele>
        <time>2018-02-08T15:14:24Z</time>
      </trkpt>
      <trkpt lat="45.5988" lon="6.66955">
        <ele>1480.09</ele>
        <time>2018-02-08T15:14:25Z</time>
      </trkpt>
      <trkpt lat="45.59872" lon="6.66948">
        <ele>1479.13</ele>
        <time>2018-02-08T15:14:27Z</time>
      </trkpt>
      <trkpt lat="45.59867" lon="6.66946">
        <ele>1478.65</ele>
        <time>2018-02-08T15:14:28Z</time>
      </trkpt>
      <trkpt lat="45.59863" lon="6.66945">
        <ele>1478.16</ele>
        <time>2018-02-08T15:14:29Z</time>
      </trkpt>
      <trkpt lat="45.59857" lon="6.66944">
        <ele>1477.2</ele>
        <time>2018-02-08T15:14:30Z</time>
      </trkpt>
      <trkpt lat="45.59852" lon="6.66944">
        <ele>1477.2</ele>
        <time>2018-02-08T15:14:31Z</time>
      </trkpt>
      <trkpt lat="45.59847" lon="6.66945">
        <ele>1476.24</ele>
        <time>2018-02-08T15:14:32Z</time>
      </trkpt>
      <trkpt lat="45.59841" lon="6.66945">
        <ele>1476.24</ele>
        <time>2018-02-08T15:14:33Z</time>
      </trkpt>
      <trkpt lat="45.59836" lon="6.66946">
        <ele>1474.32</ele>
        <time>2018-02-08T15:14:34Z</time>
      </trkpt>
      <trkpt lat="45.59831" lon="6.66946">
        <ele>1473.84</ele>
        <time>2018-02-08T15:14:35Z</time>
      </trkpt>
      <trkpt lat="45.59826" lon="6.66946">
        <ele>1473.84</ele>
        <time>2018-02-08T15:14:36Z</time>
      </trkpt>
      <trkpt lat="45.59821" lon="6.66947">
        <ele>1473.36</ele>
        <time>2018-02-08T15:14:37Z</time>
      </trkpt>
      <trkpt lat="45.59816" lon="6.66948">
        <ele>1473.36</ele>
        <time>2018-02-08T15:14:38Z</time>
      </trkpt>
      <trkpt lat="45.59812" lon="6.66949">
        <ele>1472.88</ele>
        <time>2018-02-08T15:14:39Z</time>
      </trkpt>
      <trkpt lat="45.59807" lon="6.66949">
        <ele>1471.92</ele>
        <time>2018-02-08T15:14:40Z</time>
      </trkpt>
      <trkpt lat="45.59802" lon="6.66949">
        <ele>1471.92</ele>
        <time>2018-02-08T15:14:41Z</time>
      </trkpt>
      <trkpt lat="45.59797" lon="6.66951">
        <ele>1471.44</ele>
        <time>2018-02-08T15:14:42Z</time>
      </trkpt>
      <trkpt lat="45.59793" lon="6.66952">
        <ele>1471.44</ele>
        <time>2018-02-08T15:14:43Z</time>
      </trkpt>
      <trkpt lat="45.59788" lon="6.66953">
        <ele>1469.51</ele>
        <time>2018-02-08T15:14:44Z</time>
      </trkpt>
      <trkpt lat="45.59783" lon="6.66953">
        <ele>1469.51</ele>
        <time>2018-02-08T15:14:45Z</time>
      </trkpt>
      <trkpt lat="45.59779" lon="6.66954">
        <ele>1468.55</ele>
        <time>2018-02-08T15:14:46Z</time>
      </trkpt>
      <trkpt lat="45.59769" lon="6.66954">
        <ele>1468.55</ele>
        <time>2018-02-08T15:14:48Z</time>
      </trkpt>
      <trkpt lat="45.59758" lon="6.66953">
        <ele>1467.59</ele>
        <time>2018-02-08T15:14:50Z</time>
      </trkpt>
      <trkpt lat="45.59753" lon="6.66951">
        <ele>1466.63</ele>
        <time>2018-02-08T15:14:51Z</time>
      </trkpt>
      <trkpt lat="45.59748" lon="6.66948">
        <ele>1465.67</ele>
        <time>2018-02-08T15:14:52Z</time>
      </trkpt>
      <trkpt lat="45.59744" lon="6.66944">
        <ele>1465.67</ele>
        <time>2018-02-08T15:14:53Z</time>
      </trkpt>
      <trkpt lat="45.5974" lon="6.66939">
        <ele>1464.71</ele>
        <time>2018-02-08T15:14:54Z</time>
      </trkpt>
      <trkpt lat="45.59737" lon="6.66934">
        <ele>1464.71</ele>
        <time>2018-02-08T15:14:55Z</time>
      </trkpt>
      <trkpt lat="45.59735" lon="6.66928">
        <ele>1463.74</ele>
        <time>2018-02-08T15:14:56Z</time>
      </trkpt>
      <trkpt lat="45.59734" lon="6.66922">
        <ele>1464.23</ele>
        <time>2018-02-08T15:14:57Z</time>
      </trkpt>
      <trkpt lat="45.59733" lon="6.66916">
        <ele>1463.26</ele>
        <time>2018-02-08T15:14:58Z</time>
      </trkpt>
      <trkpt lat="45.59732" lon="6.66909">
        <ele>1462.78</ele>
        <time>2018-02-08T15:14:59Z</time>
      </trkpt>
      <trkpt lat="45.59732" lon="6.66903">
        <ele>1462.78</ele>
        <time>2018-02-08T15:15:00Z</time>
      </trkpt>
      <trkpt lat="45.59732" lon="6.66898">
        <ele>1462.3</ele>
        <time>2018-02-08T15:15:01Z</time>
      </trkpt>
      <trkpt lat="45.59733" lon="6.66873">
        <ele>1460.38</ele>
        <time>2018-02-08T15:15:05Z</time>
      </trkpt>
      <trkpt lat="45.59732" lon="6.66859">
        <ele>1459.42</ele>
        <time>2018-02-08T15:15:07Z</time>
      </trkpt>
      <trkpt lat="45.59732" lon="6.66852">
        <ele>1457.98</ele>
        <time>2018-02-08T15:15:08Z</time>
      </trkpt>
      <trkpt lat="45.59732" lon="6.66845">
        <ele>1457.5</ele>
        <time>2018-02-08T15:15:09Z</time>
      </trkpt>
      <trkpt lat="45.59731" lon="6.66838">
        <ele>1457.5</ele>
        <time>2018-02-08T15:15:10Z</time>
      </trkpt>
      <trkpt lat="45.59729" lon="6.66831">
        <ele>1456.53</ele>
        <time>2018-02-08T15:15:11Z</time>
      </trkpt>
      <trkpt lat="45.59726" lon="6.66825">
        <ele>1456.05</ele>
        <time>2018-02-08T15:15:12Z</time>
      </trkpt>
      <trkpt lat="45.59723" lon="6.66819">
        <ele>1456.53</ele>
        <time>2018-02-08T15:15:13Z</time>
      </trkpt>
      <trkpt lat="45.5972" lon="6.66814">
        <ele>1455.57</ele>
        <time>2018-02-08T15:15:14Z</time>
      </trkpt>
      <trkpt lat="45.59708" lon="6.66801">
        <ele>1454.13</ele>
        <time>2018-02-08T15:15:17Z</time>
      </trkpt>
      <trkpt lat="45.59704" lon="6.66797">
        <ele>1453.17</ele>
        <time>2018-02-08T15:15:18Z</time>
      </trkpt>
      <trkpt lat="45.597" lon="6.66794">
        <ele>1452.69</ele>
        <time>2018-02-08T15:15:19Z</time>
      </trkpt>
      <trkpt lat="45.59691" lon="6.66787">
        <ele>1452.21</ele>
        <time>2018-02-08T15:15:21Z</time>
      </trkpt>
      <trkpt lat="45.59683" lon="6.66781">
        <ele>1450.77</ele>
        <time>2018-02-08T15:15:23Z</time>
      </trkpt>
      <trkpt lat="45.5968" lon="6.66778">
        <ele>1450.29</ele>
        <time>2018-02-08T15:15:24Z</time>
      </trkpt>
      <trkpt lat="45.59665" lon="6.6677">
        <ele>1448.36</ele>
        <time>2018-02-08T15:15:28Z</time>
      </trkpt>
      <trkpt lat="45.59661" lon="6.6677">
        <ele>1447.88</ele>
        <time>2018-02-08T15:15:29Z</time>
      </trkpt>
      <trkpt lat="45.59656" lon="6.66771">
        <ele>1447.4</ele>
        <time>2018-02-08T15:15:30Z</time>
      </trkpt>
      <trkpt lat="45.59652" lon="6.66772">
        <ele>1445.96</ele>
        <time>2018-02-08T15:15:31Z</time>
      </trkpt>
      <trkpt lat="45.59648" lon="6.66773">
        <ele>1445.96</ele>
        <time>2018-02-08T15:15:32Z</time>
      </trkpt>
      <trkpt lat="45.59628" lon="6.66776">
        <ele>1445</ele>
        <time>2018-02-08T15:15:36Z</time>
      </trkpt>
      <trkpt lat="45.59623" lon="6.66777">
        <ele>1444.52</ele>
        <time>2018-02-08T15:15:37Z</time>
      </trkpt>
      <trkpt lat="45.59618" lon="6.66777">
        <ele>1444.04</ele>
        <time>2018-02-08T15:15:38Z</time>
      </trkpt>
      <trkpt lat="45.59613" lon="6.66777">
        <ele>1442.6</ele>
        <time>2018-02-08T15:15:39Z</time>
      </trkpt>
      <trkpt lat="45.59609" lon="6.66778">
        <ele>1443.08</ele>
        <time>2018-02-08T15:15:40Z</time>
      </trkpt>
      <trkpt lat="45.59605" lon="6.66777">
        <ele>1441.15</ele>
        <time>2018-02-08T15:15:41Z</time>
      </trkpt>
      <trkpt lat="45.59602" lon="6.66776">
        <ele>1441.63</ele>
        <time>2018-02-08T15:15:42Z</time>
      </trkpt>
      <trkpt lat="45.59599" lon="6.66777">
        <ele>1441.15</ele>
        <time>2018-02-08T15:15:43Z</time>
      </trkpt>
      <trkpt lat="45.59597" lon="6.6678">
        <ele>1440.67</ele>
        <time>2018-02-08T15:15:44Z</time>
      </trkpt>
      <trkpt lat="45.59596" lon="6.66785">
        <ele>1439.71</ele>
        <time>2018-02-08T15:15:45Z</time>
      </trkpt>
      <trkpt lat="45.59597" lon="6.66789">
        <ele>1439.23</ele>
        <time>2018-02-08T15:15:46Z</time>
      </trkpt>
      <trkpt lat="45.596" lon="6.66794">
        <ele>1439.71</ele>
        <time>2018-02-08T15:15:47Z</time>
      </trkpt>
      <trkpt lat="45.59603" lon="6.66797">
        <ele>1438.75</ele>
        <time>2018-02-08T15:15:48Z</time>
      </trkpt>
      <trkpt lat="45.59606" lon="6.66801">
        <ele>1437.79</ele>
        <time>2018-02-08T15:15:49Z</time>
      </trkpt>
      <trkpt lat="45.5962" lon="6.66818">
        <ele>1436.35</ele>
        <time>2018-02-08T15:15:54Z</time>
      </trkpt>
      <trkpt lat="45.59624" lon="6.66821">
        <ele>1435.39</ele>
        <time>2018-02-08T15:15:55Z</time>
      </trkpt>
      <trkpt lat="45.59627" lon="6.66825">
        <ele>1435.39</ele>
        <time>2018-02-08T15:15:56Z</time>
      </trkpt>
      <trkpt lat="45.5963" lon="6.66829">
        <ele>1434.91</ele>
        <time>2018-02-08T15:15:57Z</time>
      </trkpt>
      <trkpt lat="45.59632" lon="6.66834">
        <ele>1434.42</ele>
        <time>2018-02-08T15:15:58Z</time>
      </trkpt>
      <trkpt lat="45.59634" lon="6.66839">
        <ele>1434.91</ele>
        <time>2018-02-08T15:15:59Z</time>
      </trkpt>
      <trkpt lat="45.59636" lon="6.66845">
        <ele>1434.42</ele>
        <time>2018-02-08T15:16:00Z</time>
      </trkpt>
      <trkpt lat="45.59637" lon="6.66851">
        <ele>1433.46</ele>
        <time>2018-02-08T15:16:01Z</time>
      </trkpt>
      <trkpt lat="45.59638" lon="6.66857">
        <ele>1432.98</ele>
        <time>2018-02-08T15:16:02Z</time>
      </trkpt>
      <trkpt lat="45.59638" lon="6.66864">
        <ele>1432.5</ele>
        <time>2018-02-08T15:16:03Z</time>
      </trkpt>
      <trkpt lat="45.59637" lon="6.6687">
        <ele>1432.02</ele>
        <time>2018-02-08T15:16:04Z</time>
      </trkpt>
      <trkpt lat="45.59636" lon="6.6689">
        <ele>1430.1</ele>
        <time>2018-02-08T15:16:07Z</time>
      </trkpt>
      <trkpt lat="45.59635" lon="6.66897">
        <ele>1430.1</ele>
        <time>2018-02-08T15:16:08Z</time>
      </trkpt>
      <trkpt lat="45.59635" lon="6.66903">
        <ele>1429.62</ele>
        <time>2018-02-08T15:16:09Z</time>
      </trkpt>
      <trkpt lat="45.59634" lon="6.6691">
        <ele>1428.66</ele>
        <time>2018-02-08T15:16:10Z</time>
      </trkpt>
      <trkpt lat="45.59634" lon="6.66916">
        <ele>1429.62</ele>
        <time>2018-02-08T15:16:11Z</time>
      </trkpt>
      <trkpt lat="45.59633" lon="6.66929">
        <ele>1428.66</ele>
        <time>2018-02-08T15:16:13Z</time>
      </trkpt>
      <trkpt lat="45.59634" lon="6.66937">
        <ele>1428.66</ele>
        <time>2018-02-08T15:16:14Z</time>
      </trkpt>
      <trkpt lat="45.59634" lon="6.66944">
        <ele>1427.21</ele>
        <time>2018-02-08T15:16:15Z</time>
      </trkpt>
      <trkpt lat="45.59634" lon="6.66951">
        <ele>1424.81</ele>
        <time>2018-02-08T15:16:16Z</time>
      </trkpt>
      <trkpt lat="45.59635" lon="6.66958">
        <ele>1426.73</ele>
        <time>2018-02-08T15:16:17Z</time>
      </trkpt>
      <trkpt lat="45.59636" lon="6.66965">
        <ele>1426.25</ele>
        <time>2018-02-08T15:16:18Z</time>
      </trkpt>
      <trkpt lat="45.59638" lon="6.66971">
        <ele>1425.29</ele>
        <time>2018-02-08T15:16:19Z</time>
      </trkpt>
      <trkpt lat="45.59641" lon="6.66983">
        <ele>1424.33</ele>
        <time>2018-02-08T15:16:21Z</time>
      </trkpt>
      <trkpt lat="45.59642" lon="6.66989">
        <ele>1423.85</ele>
        <time>2018-02-08T15:16:22Z</time>
      </trkpt>
      <trkpt lat="45.59643" lon="6.66996">
        <ele>1423.37</ele>
        <time>2018-02-08T15:16:23Z</time>
      </trkpt>
      <trkpt lat="45.59643" lon="6.67002">
        <ele>1422.89</ele>
        <time>2018-02-08T15:16:24Z</time>
      </trkpt>
      <trkpt lat="45.59642" lon="6.67009">
        <ele>1421.45</ele>
        <time>2018-02-08T15:16:25Z</time>
      </trkpt>
      <trkpt lat="45.59639" lon="6.67015">
        <ele>1420.97</ele>
        <time>2018-02-08T15:16:26Z</time>
      </trkpt>
      <trkpt lat="45.59635" lon="6.67018">
        <ele>1420.97</ele>
        <time>2018-02-08T15:16:27Z</time>
      </trkpt>
      <trkpt lat="45.5963" lon="6.67017">
        <ele>1420.49</ele>
        <time>2018-02-08T15:16:28Z</time>
      </trkpt>
      <trkpt lat="45.59626" lon="6.67016">
        <ele>1420</ele>
        <time>2018-02-08T15:16:29Z</time>
      </trkpt>
      <trkpt lat="45.59605" lon="6.67007">
        <ele>1419.04</ele>
        <time>2018-02-08T15:16:34Z</time>
      </trkpt>
      <trkpt lat="45.59601" lon="6.67004">
        <ele>1418.08</ele>
        <time>2018-02-08T15:16:35Z</time>
      </trkpt>
      <trkpt lat="45.59597" lon="6.67002">
        <ele>1418.56</ele>
        <time>2018-02-08T15:16:36Z</time>
      </trkpt>
      <trkpt lat="45.59593" lon="6.67">
        <ele>1418.08</ele>
        <time>2018-02-08T15:16:37Z</time>
      </trkpt>
      <trkpt lat="45.59588" lon="6.66999">
        <ele>1418.08</ele>
        <time>2018-02-08T15:16:38Z</time>
      </trkpt>
      <trkpt lat="45.59583" lon="6.66999">
        <ele>1417.12</ele>
        <time>2018-02-08T15:16:39Z</time>
      </trkpt>
      <trkpt lat="45.59578" lon="6.66999">
        <ele>1416.64</ele>
        <time>2018-02-08T15:16:40Z</time>
      </trkpt>
      <trkpt lat="45.59559" lon="6.67001">
        <ele>1416.16</ele>
        <time>2018-02-08T15:16:44Z</time>
      </trkpt>
      <trkpt lat="45.5953" lon="6.66995">
        <ele>1413.76</ele>
        <time>2018-02-08T15:16:50Z</time>
      </trkpt>
      <trkpt lat="45.59514" lon="6.66997">
        <ele>1412.31</ele>
        <time>2018-02-08T15:16:53Z</time>
      </trkpt>
      <trkpt lat="45.59509" lon="6.66999">
        <ele>1412.31</ele>
        <time>2018-02-08T15:16:54Z</time>
      </trkpt>
      <trkpt lat="45.59472" lon="6.67025">
        <ele>1408.95</ele>
        <time>2018-02-08T15:17:03Z</time>
      </trkpt>
      <trkpt lat="45.59433" lon="6.67044">
        <ele>1406.07</ele>
        <time>2018-02-08T15:17:13Z</time>
      </trkpt>
      <trkpt lat="45.59429" lon="6.67046">
        <ele>1406.07</ele>
        <time>2018-02-08T15:17:14Z</time>
      </trkpt>
      <trkpt lat="45.59425" lon="6.67049">
        <ele>1405.58</ele>
        <time>2018-02-08T15:17:15Z</time>
      </trkpt>
      <trkpt lat="45.59392" lon="6.67075">
        <ele>1403.18</ele>
        <time>2018-02-08T15:17:23Z</time>
      </trkpt>
      <trkpt lat="45.59388" lon="6.67076">
        <ele>1403.18</ele>
        <time>2018-02-08T15:17:24Z</time>
      </trkpt>
      <trkpt lat="45.59384" lon="6.67078">
        <ele>1402.7</ele>
        <time>2018-02-08T15:17:25Z</time>
      </trkpt>
      <trkpt lat="45.5936" lon="6.67082">
        <ele>1401.74</ele>
        <time>2018-02-08T15:17:33Z</time>
      </trkpt>
      <trkpt lat="45.5935" lon="6.67083">
        <ele>1401.74</ele>
        <time>2018-02-08T15:17:37Z</time>
      </trkpt>
      <trkpt lat="45.59349" lon="6.67083">
        <ele>1401.26</ele>
        <time>2018-02-08T15:17:38Z</time>
      </trkpt>
      <trkpt lat="45.59324" lon="6.67077">
        <ele>1401.26</ele>
        <time>2018-02-08T15:17:51Z</time>
      </trkpt>
      <trkpt lat="45.593" lon="6.67077">
        <ele>1401.26</ele>
        <time>2018-02-08T15:18:03Z</time>
      </trkpt>
      <trkpt lat="45.59278" lon="6.67081">
        <ele>1400.78</ele>
        <time>2018-02-08T15:18:14Z</time>
      </trkpt>
      <trkpt lat="45.59251" lon="6.67082">
        <ele>1400.78</ele>
        <time>2018-02-08T15:18:26Z</time>
      </trkpt>
      <trkpt lat="45.59231" lon="6.67083">
        <ele>1400.78</ele>
        <time>2018-02-08T15:18:38Z</time>
      </trkpt>
      <trkpt lat="45.59219" lon="6.67085">
        <ele>1400.3</ele>
        <time>2018-02-08T15:18:45Z</time>
      </trkpt>
      <trkpt lat="45.59201" lon="6.67093">
        <ele>1399.82</ele>
        <time>2018-02-08T15:18:57Z</time>
      </trkpt>
      <trkpt lat="45.59199" lon="6.67096">
        <ele>1399.82</ele>
        <time>2018-02-08T15:18:59Z</time>
      </trkpt>
      <trkpt lat="45.59191" lon="6.67102">
        <ele>1400.3</ele>
        <time>2018-02-08T15:19:09Z</time>
      </trkpt>
      <trkpt lat="45.59191" lon="6.67103">
        <ele>1399.82</ele>
        <time>2018-02-08T15:19:29Z</time>
      </trkpt>
      <trkpt lat="45.59191" lon="6.67103">
        <ele>1399.34</ele>
        <time>2018-02-08T15:19:49Z</time>
      </trkpt>
      <trkpt lat="45.59188" lon="6.67103">
        <ele>1400.3</ele>
        <time>2018-02-08T15:20:02Z</time>
      </trkpt>
      <trkpt lat="45.59183" lon="6.67101">
        <ele>1400.3</ele>
        <time>2018-02-08T15:20:07Z</time>
      </trkpt>
      <trkpt lat="45.59177" lon="6.67097">
        <ele>1399.82</ele>
        <time>2018-02-08T15:20:24Z</time>
      </trkpt>
      <trkpt lat="45.59178" lon="6.67096">
        <ele>1400.3</ele>
        <time>2018-02-08T15:20:38Z</time>
      </trkpt>
    </trkseg>
  </trk>
</gpx>